메인 페이지
METAR-TAF:

METAR-TAF

공항 :

폰페이 섬, 미크로네시아

폰페이 국제공항

위도: 06-59N, 경도: 158-12E, 고도: 2m

현재 날씨관측

예보는 4 시간 41분 전, 02:50시(UTC)에 발표되었습니다.
10kt
온도 26°C
습도 94%
기압 1008 hPa
시정: 4.8km
고도 1600ft 상공 구름 많음, 적란운.
고도 12800ft 상공 흐림
소나기

METAR: PTPN 250250Z 09010KT 3SM SHRA BKN016CB OVC128 26/25 A2978 RMK CB ALQDS MOV W

시각: 18:31 (07:31 UTC)

예보

예보는 5 시간 34분 전, 01:57시(UTC)에 발표되었습니다.
예보 대상 시간: 25일 02시부터 25일 24시까지 (UTC)
동북동11kt
시정: 10km
고도 1700ft 상공 구름 보통, 적란운.
고도 10000ft 상공 구름 많음
시계 내 뇌우
일시적
25일 02시부터 25일 04시까지 (UTC)
여러 방향의 바람 11kt, 순간 최대 풍속 20kt
시정: 3.2km
고도 1500ft 상공 구름 많음, 적란운.
고도 3000ft 상공 흐림
뇌우, 강한비
25일 0800시부터 (UTC)
동북동11kt
시정: 10km
고도 2000ft 상공 구름 보통
고도 12000ft 상공 구름 많음
시계 내 소나기

TAF: PTPN 250157Z 2502/2524 07011KT P6SM VCTS SCT017CB BKN100 TEMPO 2502/2504 VRB11G20KT 2SM +TSRA BKN015CB OVC030 FM250800 07011KT P6SM VCSH SCT020 BKN120

4,000개 이상의 공항 관측 자료 및 예보 (METAR 및 TAF 보고).

지도상에서 검색 가능한 기상관측소가 노란 점과 빨간 점으로 표시되어 있습니다.

기상관측소 명을 보려면 표시 위로 마우스를 이동하세요.

날씨 관측과 예보를 보려면 클릭하세요.

지도 변경 : 확대하려면 엑스 표시가 있는 녹색 버튼, 축소하려면 빼기 표시가 있는 녹색 버튼, 다음 페이지의 지도를 보려면 녹색 화살표를 클릭하세요.


METAR-TAF: